SIA174 WIII-WSSS
Flight info
| Callsign | SIA174 |
|---|---|
| Flight time | 1h 29m |
| Altitude | 34000 |
| Route | DOLTA2A DOLTA G579 REPOV REPOV2B |
| Aircraft | B77W/H-SDE1E2E3FGHIJ2J3J4J5M1RWXY/LB1D1 |
Departure
| Time | 2026-05-07 08:22 |
|---|---|
| Airport | Soekarno-Hatta International Airport (WIII) |
Arrival
| Time | 2026-05-07 09:51 |
|---|---|
| Airport | Singapore Changi Airport (WSSS) |
| Time | Latitude | Longitude | Altitude | Speed | Heading |
|---|---|---|---|---|---|
| 2026-05-07 07:50 | -6.12033 | 106.65077 | 40 ft | 0 kts | 130° |
| 2026-05-07 08:11 | -6.12023 | 106.65065 | 42 ft | 4 kts | 128° |
| 2026-05-07 08:11 | -6.12007 | 106.65043 | 41 ft | 4 kts | 128° |
| 2026-05-07 08:12 | -6.11989 | 106.65024 | 40 ft | 4 kts | 150° |
| 2026-05-07 08:12 | -6.11965 | 106.65017 | 58 ft | 4 kts | 176° |
| 2026-05-07 08:12 | -6.11941 | 106.65021 | 36 ft | 4 kts | 219° |
| 2026-05-07 08:12 | -6.11927 | 106.65042 | 41 ft | 4 kts | 255° |
| 2026-05-07 08:13 | -6.11921 | 106.65064 | 40 ft | 1 kts | 248° |
| 2026-05-07 08:13 | -6.11921 | 106.65065 | 40 ft | 0 kts | 248° |
| 2026-05-07 08:17 | -6.11929 | 106.65043 | 39 ft | 12 kts | 248° |
| 2026-05-07 08:18 | -6.11983 | 106.64909 | 43 ft | 24 kts | 248° |
| 2026-05-07 08:18 | -6.12032 | 106.64782 | 43 ft | 20 kts | 248° |
| 2026-05-07 08:18 | -6.12098 | 106.64619 | 43 ft | 26 kts | 248° |
| 2026-05-07 08:18 | -6.12166 | 106.64449 | 43 ft | 26 kts | 248° |
| 2026-05-07 08:19 | -6.12234 | 106.64279 | 43 ft | 26 kts | 248° |
| 2026-05-07 08:19 | -6.12300 | 106.64112 | 43 ft | 21 kts | 248° |
| 2026-05-07 08:19 | -6.12341 | 106.63985 | 44 ft | 19 kts | 277° |
| 2026-05-07 08:19 | -6.12245 | 106.63904 | 45 ft | 17 kts | 339° |
| 2026-05-07 08:20 | -6.12133 | 106.63913 | 46 ft | 17 kts | 25° |
| 2026-05-07 08:20 | -6.12059 | 106.63986 | 45 ft | 11 kts | 67° |
| 2026-05-07 08:20 | -6.12056 | 106.63995 | 45 ft | 0 kts | 68° |
| 2026-05-07 08:20 | -6.12055 | 106.63996 | 45 ft | 1 kts | 68° |
| 2026-05-07 08:21 | -6.12053 | 106.64001 | 45 ft | 1 kts | 68° |
| 2026-05-07 08:21 | -6.12024 | 106.64077 | 45 ft | 30 kts | 68° |
| 2026-05-07 08:21 | -6.11841 | 106.64536 | 47 ft | 111 kts | 68° |
| 2026-05-07 08:21 | -6.11458 | 106.65472 | 71 ft | 172 kts | 67° |
| 2026-05-07 08:22 | -6.10999 | 106.66620 | 579 ft | 187 kts | 68° |
| 2026-05-07 08:22 | -6.10388 | 106.67784 | 1188 ft | 194 kts | 43° |
| 2026-05-07 08:22 | -6.09269 | 106.68561 | 1906 ft | 189 kts | 37° |
| 2026-05-07 08:22 | -6.08133 | 106.69366 | 2388 ft | 214 kts | 36° |
| 2026-05-07 08:23 | -6.06760 | 106.70203 | 2638 ft | 245 kts | 27° |
| 2026-05-07 08:23 | -6.05056 | 106.70561 | 3283 ft | 259 kts | 5° |
| 2026-05-07 08:23 | -6.03224 | 106.70570 | 4056 ft | 266 kts | 1° |
| 2026-05-07 08:23 | -6.01366 | 106.70527 | 4737 ft | 267 kts | 1° |
| 2026-05-07 08:24 | -5.99515 | 106.70481 | 5019 ft | 270 kts | 1° |
| 2026-05-07 08:24 | -5.97616 | 106.70432 | 4965 ft | 275 kts | 1° |
| 2026-05-07 08:24 | -5.95686 | 106.70375 | 5384 ft | 280 kts | 0° |
| 2026-05-07 08:24 | -5.93740 | 106.70319 | 6173 ft | 287 kts | 0° |
| 2026-05-07 08:25 | -5.91739 | 106.70266 | 7065 ft | 288 kts | 0° |
| 2026-05-07 08:25 | -5.89727 | 106.70213 | 7915 ft | 291 kts | 0° |
| 2026-05-07 08:25 | -5.87690 | 106.70159 | 8760 ft | 294 kts | 0° |
| 2026-05-07 08:25 | -5.85630 | 106.70105 | 9602 ft | 298 kts | 0° |
| 2026-05-07 08:26 | -5.81361 | 106.69985 | 10746 ft | 327 kts | 0° |
| 2026-05-07 08:26 | -5.78986 | 106.69928 | 10954 ft | 355 kts | 1° |
| 2026-05-07 08:26 | -5.76452 | 106.69875 | 11436 ft | 371 kts | 0° |
| 2026-05-07 08:27 | -5.73836 | 106.69824 | 12278 ft | 379 kts | 0° |
| 2026-05-07 08:27 | -5.71220 | 106.69775 | 13213 ft | 383 kts | 0° |
| 2026-05-07 08:27 | -5.68542 | 106.69726 | 13763 ft | 387 kts | 0° |
| 2026-05-07 08:27 | -5.65845 | 106.69679 | 13794 ft | 388 kts | 0° |
| 2026-05-07 08:28 | -5.63150 | 106.69632 | 13802 ft | 388 kts | 0° |
| 2026-05-07 08:28 | -5.60445 | 106.69585 | 13801 ft | 388 kts | 0° |
| 2026-05-07 08:28 | -5.57743 | 106.69539 | 13797 ft | 388 kts | 0° |
| 2026-05-07 08:28 | -5.55032 | 106.69492 | 14049 ft | 395 kts | 0° |
| 2026-05-07 08:29 | -5.52272 | 106.69336 | 14674 ft | 400 kts | 351° |
| 2026-05-07 08:29 | -5.49695 | 106.68272 | 15428 ft | 406 kts | 327° |
| 2026-05-07 08:29 | -5.47398 | 106.66691 | 16106 ft | 409 kts | 328° |
| 2026-05-07 08:29 | -5.44958 | 106.65183 | 16793 ft | 415 kts | 331° |
| 2026-05-07 08:30 | -5.42422 | 106.63762 | 17609 ft | 419 kts | 333° |
| 2026-05-07 08:30 | -5.39830 | 106.62394 | 18362 ft | 423 kts | 334° |
| 2026-05-07 08:30 | -5.37200 | 106.61051 | 19027 ft | 427 kts | 335° |
| 2026-05-07 08:30 | -5.34530 | 106.59712 | 19719 ft | 430 kts | 335° |
| 2026-05-07 08:31 | -5.31839 | 106.58370 | 20387 ft | 434 kts | 335° |
| 2026-05-07 08:31 | -5.29117 | 106.57014 | 21031 ft | 439 kts | 335° |
| 2026-05-07 08:31 | -5.26376 | 106.55648 | 21659 ft | 443 kts | 335° |
| 2026-05-07 08:31 | -5.23640 | 106.54282 | 22332 ft | 446 kts | 335° |
| 2026-05-07 08:32 | -5.20861 | 106.52893 | 22966 ft | 449 kts | 335° |
| 2026-05-07 08:32 | -5.18046 | 106.51484 | 23523 ft | 454 kts | 335° |
| 2026-05-07 08:32 | -5.15215 | 106.50066 | 24009 ft | 458 kts | 335° |
| 2026-05-07 08:32 | -5.12355 | 106.48633 | 24529 ft | 460 kts | 335° |
| 2026-05-07 08:33 | -5.09479 | 106.47192 | 25058 ft | 463 kts | 335° |
| 2026-05-07 08:33 | -5.06599 | 106.45750 | 25585 ft | 465 kts | 335° |
| 2026-05-07 08:33 | -5.03699 | 106.44298 | 26107 ft | 467 kts | 335° |
| 2026-05-07 08:33 | -5.00776 | 106.42835 | 26591 ft | 471 kts | 335° |
| 2026-05-07 08:34 | -4.97852 | 106.41371 | 27037 ft | 474 kts | 335° |
| 2026-05-07 08:34 | -4.94888 | 106.39888 | 27527 ft | 477 kts | 335° |
| 2026-05-07 08:34 | -4.91946 | 106.38416 | 28000 ft | 480 kts | 335° |
| 2026-05-07 08:34 | -4.88958 | 106.36919 | 28462 ft | 483 kts | 335° |
| 2026-05-07 08:35 | -4.85941 | 106.35409 | 28937 ft | 485 kts | 335° |
| 2026-05-07 08:35 | -4.82909 | 106.33892 | 29409 ft | 487 kts | 335° |
| 2026-05-07 08:35 | -4.79871 | 106.32372 | 29890 ft | 489 kts | 335° |
| 2026-05-07 08:35 | -4.76826 | 106.30849 | 30271 ft | 491 kts | 335° |
| 2026-05-07 08:36 | -4.73759 | 106.29314 | 30649 ft | 493 kts | 335° |
| 2026-05-07 08:36 | -4.70723 | 106.27796 | 31033 ft | 494 kts | 335° |
| 2026-05-07 08:36 | -4.67619 | 106.26242 | 31524 ft | 492 kts | 335° |
| 2026-05-07 08:36 | -4.64603 | 106.24733 | 32090 ft | 489 kts | 334° |
| 2026-05-07 08:37 | -4.61570 | 106.23217 | 32587 ft | 488 kts | 334° |
| 2026-05-07 08:37 | -4.58534 | 106.21699 | 33103 ft | 486 kts | 334° |
| 2026-05-07 08:37 | -4.55515 | 106.20190 | 33601 ft | 484 kts | 334° |
| 2026-05-07 08:37 | -4.52525 | 106.18696 | 33824 ft | 478 kts | 334° |
| 2026-05-07 08:38 | -4.46534 | 106.15701 | 33806 ft | 484 kts | 334° |
| 2026-05-07 08:38 | -4.40536 | 106.12704 | 33803 ft | 486 kts | 334° |
| 2026-05-07 08:39 | -4.34482 | 106.09678 | 33802 ft | 487 kts | 335° |
| 2026-05-07 08:39 | -4.28422 | 106.06652 | 33797 ft | 487 kts | 335° |
| 2026-05-07 08:40 | -4.22356 | 106.03624 | 33800 ft | 486 kts | 334° |
| 2026-05-07 08:40 | -4.16350 | 106.00624 | 33794 ft | 485 kts | 335° |
| 2026-05-07 08:41 | -4.10467 | 105.97684 | 33793 ft | 484 kts | 334° |
| 2026-05-07 08:41 | -4.04439 | 105.94675 | 33795 ft | 484 kts | 334° |
| 2026-05-07 08:42 | -3.98421 | 105.91673 | 33794 ft | 484 kts | 335° |
| 2026-05-07 08:42 | -3.92388 | 105.88664 | 33799 ft | 485 kts | 335° |
| 2026-05-07 08:43 | -3.86391 | 105.85673 | 33797 ft | 485 kts | 335° |
| 2026-05-07 08:43 | -3.80344 | 105.82656 | 33800 ft | 486 kts | 335° |
| 2026-05-07 08:44 | -3.74297 | 105.79640 | 33796 ft | 486 kts | 335° |
| 2026-05-07 08:44 | -3.68251 | 105.76624 | 33802 ft | 486 kts | 335° |
| 2026-05-07 08:45 | -3.62189 | 105.73602 | 33793 ft | 487 kts | 335° |
| 2026-05-07 08:45 | -3.56127 | 105.70579 | 33802 ft | 488 kts | 335° |
| 2026-05-07 08:46 | -3.50076 | 105.67564 | 33798 ft | 489 kts | 335° |
| 2026-05-07 08:46 | -3.43991 | 105.64531 | 33798 ft | 490 kts | 335° |
| 2026-05-07 08:47 | -3.37878 | 105.61484 | 33797 ft | 491 kts | 335° |
| 2026-05-07 08:47 | -3.31767 | 105.58439 | 33802 ft | 491 kts | 335° |
| 2026-05-07 08:48 | -3.25686 | 105.55410 | 33799 ft | 492 kts | 335° |
| 2026-05-07 08:48 | -3.19552 | 105.52354 | 33798 ft | 492 kts | 335° |
| 2026-05-07 08:49 | -3.13427 | 105.49304 | 33797 ft | 492 kts | 335° |
| 2026-05-07 08:49 | -3.07301 | 105.46253 | 33797 ft | 492 kts | 335° |
| 2026-05-07 08:50 | -3.01184 | 105.43207 | 33797 ft | 491 kts | 335° |
| 2026-05-07 08:50 | -2.95128 | 105.40192 | 33797 ft | 491 kts | 335° |
| 2026-05-07 08:51 | -2.89019 | 105.37151 | 33795 ft | 490 kts | 335° |
| 2026-05-07 08:51 | -2.82913 | 105.34109 | 33793 ft | 490 kts | 335° |
| 2026-05-07 08:52 | -2.76809 | 105.31070 | 33792 ft | 490 kts | 335° |
| 2026-05-07 08:52 | -2.70709 | 105.28034 | 33786 ft | 490 kts | 335° |
| 2026-05-07 08:53 | -2.64641 | 105.25015 | 33786 ft | 490 kts | 335° |
| 2026-05-07 08:53 | -2.58531 | 105.21975 | 33787 ft | 491 kts | 335° |
| 2026-05-07 08:54 | -2.52416 | 105.18933 | 33789 ft | 491 kts | 335° |
| 2026-05-07 08:54 | -2.46316 | 105.15899 | 33782 ft | 490 kts | 335° |
| 2026-05-07 08:55 | -2.40200 | 105.12857 | 33786 ft | 490 kts | 335° |
| 2026-05-07 08:55 | -2.34100 | 105.09824 | 33780 ft | 490 kts | 335° |
| 2026-05-07 08:56 | -2.28046 | 105.06814 | 33784 ft | 489 kts | 335° |
| 2026-05-07 08:56 | -2.21955 | 105.03786 | 33783 ft | 489 kts | 335° |
| 2026-05-07 08:57 | -2.15852 | 105.00752 | 33797 ft | 490 kts | 335° |
| 2026-05-07 08:57 | -2.09880 | 104.97785 | 33774 ft | 491 kts | 335° |
| 2026-05-07 08:58 | -2.03809 | 104.94765 | 33777 ft | 490 kts | 335° |
| 2026-05-07 08:58 | -1.97738 | 104.91748 | 33778 ft | 490 kts | 335° |
| 2026-05-07 08:59 | -1.91642 | 104.88718 | 33774 ft | 489 kts | 335° |
| 2026-05-07 08:59 | -1.85538 | 104.85686 | 33780 ft | 489 kts | 335° |
| 2026-05-07 09:00 | -1.79457 | 104.82664 | 33788 ft | 487 kts | 335° |
| 2026-05-07 09:00 | -1.73395 | 104.79652 | 33774 ft | 486 kts | 335° |
| 2026-05-07 09:01 | -1.67394 | 104.76670 | 33773 ft | 484 kts | 335° |
| 2026-05-07 09:01 | -1.61377 | 104.73681 | 33774 ft | 483 kts | 335° |
| 2026-05-07 09:02 | -1.55369 | 104.70696 | 33776 ft | 482 kts | 335° |
| 2026-05-07 09:02 | -1.49355 | 104.67710 | 33776 ft | 483 kts | 335° |
| 2026-05-07 09:03 | -1.43366 | 104.64735 | 33771 ft | 486 kts | 335° |
| 2026-05-07 09:03 | -1.37288 | 104.61717 | 33785 ft | 490 kts | 335° |
| 2026-05-07 09:04 | -1.31153 | 104.58670 | 33782 ft | 493 kts | 335° |
| 2026-05-07 09:04 | -1.25007 | 104.55617 | 33777 ft | 495 kts | 335° |
| 2026-05-07 09:05 | -1.18850 | 104.52559 | 33771 ft | 495 kts | 335° |
| 2026-05-07 09:05 | -1.12729 | 104.49520 | 33773 ft | 493 kts | 335° |
| 2026-05-07 09:06 | -1.06594 | 104.46473 | 33774 ft | 492 kts | 335° |
| 2026-05-07 09:06 | -1.00475 | 104.43435 | 33774 ft | 491 kts | 335° |
| 2026-05-07 09:07 | -0.94395 | 104.40417 | 33776 ft | 490 kts | 335° |
| 2026-05-07 09:07 | -0.88287 | 104.37384 | 33775 ft | 490 kts | 335° |
| 2026-05-07 09:08 | -0.82183 | 104.34354 | 33776 ft | 490 kts | 335° |
| 2026-05-07 09:08 | -0.76118 | 104.31342 | 33775 ft | 490 kts | 335° |
| 2026-05-07 09:09 | -0.70009 | 104.28309 | 33776 ft | 490 kts | 335° |
| 2026-05-07 09:09 | -0.63893 | 104.25272 | 33775 ft | 490 kts | 335° |
| 2026-05-07 09:10 | -0.57731 | 104.22373 | 33775 ft | 489 kts | 341° |
| 2026-05-07 09:10 | -0.51250 | 104.20487 | 33190 ft | 492 kts | 349° |
| 2026-05-07 09:11 | -0.47907 | 104.19830 | 32655 ft | 488 kts | 350° |
| 2026-05-07 09:11 | -0.44582 | 104.19207 | 32106 ft | 483 kts | 351° |
| 2026-05-07 09:11 | -0.41289 | 104.18591 | 31584 ft | 479 kts | 351° |
| 2026-05-07 09:11 | -0.38037 | 104.17972 | 31055 ft | 475 kts | 350° |
| 2026-05-07 09:12 | -0.34803 | 104.17345 | 30516 ft | 472 kts | 350° |
| 2026-05-07 09:12 | -0.31589 | 104.16712 | 29983 ft | 469 kts | 350° |
| 2026-05-07 09:12 | -0.28443 | 104.16088 | 29377 ft | 467 kts | 350° |
| 2026-05-07 09:12 | -0.25266 | 104.15456 | 28805 ft | 463 kts | 350° |
| 2026-05-07 09:13 | -0.22124 | 104.14829 | 28246 ft | 460 kts | 350° |
| 2026-05-07 09:13 | -0.18997 | 104.14206 | 27706 ft | 456 kts | 350° |
| 2026-05-07 09:13 | -0.15904 | 104.13590 | 27172 ft | 452 kts | 350° |
| 2026-05-07 09:13 | -0.12825 | 104.12978 | 26645 ft | 449 kts | 350° |
| 2026-05-07 09:14 | -0.09778 | 104.12372 | 26132 ft | 446 kts | 350° |
| 2026-05-07 09:14 | -0.06737 | 104.11767 | 25607 ft | 443 kts | 350° |
| 2026-05-07 09:14 | -0.03726 | 104.11169 | 25077 ft | 441 kts | 350° |
| 2026-05-07 09:14 | -0.00760 | 104.10579 | 24567 ft | 439 kts | 350° |
| 2026-05-07 09:15 | 0.02196 | 104.09992 | 24052 ft | 437 kts | 350° |
| 2026-05-07 09:15 | 0.05177 | 104.09399 | 23545 ft | 435 kts | 350° |
| 2026-05-07 09:15 | 0.08137 | 104.08811 | 22975 ft | 434 kts | 350° |
| 2026-05-07 09:15 | 0.11091 | 104.08223 | 22408 ft | 431 kts | 350° |
| 2026-05-07 09:16 | 0.14022 | 104.07640 | 21898 ft | 427 kts | 350° |
| 2026-05-07 09:16 | 0.16921 | 104.07064 | 21406 ft | 424 kts | 350° |
| 2026-05-07 09:16 | 0.19774 | 104.06496 | 21247 ft | 412 kts | 350° |
| 2026-05-07 09:16 | 0.22544 | 104.05945 | 21054 ft | 401 kts | 350° |
| 2026-05-07 09:17 | 0.25255 | 104.05406 | 20884 ft | 391 kts | 350° |
| 2026-05-07 09:17 | 0.27854 | 104.04889 | 20689 ft | 383 kts | 350° |
| 2026-05-07 09:17 | 0.30437 | 104.04376 | 20525 ft | 373 kts | 350° |
| 2026-05-07 09:17 | 0.32952 | 104.03878 | 20331 ft | 365 kts | 350° |
| 2026-05-07 09:18 | 0.35431 | 104.03387 | 19926 ft | 364 kts | 350° |
| 2026-05-07 09:18 | 0.37915 | 104.02895 | 19455 ft | 364 kts | 350° |
| 2026-05-07 09:18 | 0.40396 | 104.02404 | 19107 ft | 362 kts | 350° |
| 2026-05-07 09:18 | 0.42857 | 104.01917 | 18779 ft | 359 kts | 350° |
| 2026-05-07 09:19 | 0.45298 | 104.01433 | 18464 ft | 356 kts | 350° |
| 2026-05-07 09:19 | 0.47684 | 104.00960 | 18144 ft | 354 kts | 350° |
| 2026-05-07 09:19 | 0.50081 | 104.00484 | 17805 ft | 350 kts | 350° |
| 2026-05-07 09:19 | 0.52452 | 104.00016 | 17589 ft | 340 kts | 352° |
| 2026-05-07 09:20 | 0.59273 | 104.03766 | 17696 ft | 330 kts | 71° |
| 2026-05-07 09:20 | 0.58084 | 104.12668 | 17695 ft | 339 kts | 124° |
| 2026-05-07 09:20 | 0.48774 | 104.21727 | 17632 ft | 333 kts | 137° |
| 2026-05-07 09:20 | 0.34494 | 104.32912 | 17584 ft | 322 kts | 142° |
| 2026-05-07 09:21 | 0.18492 | 104.41218 | 17709 ft | 332 kts | 160° |
| 2026-05-07 09:21 | -0.00103 | 104.44733 | 17794 ft | 351 kts | 178° |
| 2026-05-07 09:21 | -0.19601 | 104.44314 | 17679 ft | 346 kts | 176° |
| 2026-05-07 09:21 | -0.38153 | 104.46066 | 17551 ft | 330 kts | 171° |
| 2026-05-07 09:22 | -0.49216 | 104.47583 | 17593 ft | 327 kts | 170° |
| 2026-05-07 09:22 | -0.51522 | 104.47905 | 17597 ft | 340 kts | 170° |
| 2026-05-07 09:22 | -0.53877 | 104.48090 | 17570 ft | 342 kts | 184° |
| 2026-05-07 09:22 | -0.56183 | 104.47499 | 17582 ft | 345 kts | 205° |
| 2026-05-07 09:23 | -0.58136 | 104.46116 | 17584 ft | 346 kts | 226° |
| 2026-05-07 09:23 | -0.59447 | 104.44113 | 17573 ft | 347 kts | 249° |
| 2026-05-07 09:23 | -0.59908 | 104.41795 | 17574 ft | 346 kts | 271° |
| 2026-05-07 09:23 | -0.55378 | 104.35637 | 17594 ft | 334 kts | 342° |
| 2026-05-07 09:24 | -0.46514 | 104.32924 | 17667 ft | 335 kts | 345° |
| 2026-05-07 09:24 | -0.37535 | 104.30203 | 17682 ft | 338 kts | 344° |
| 2026-05-07 09:24 | -0.28498 | 104.27409 | 17675 ft | 338 kts | 344° |
| 2026-05-07 09:24 | -0.19662 | 104.24667 | 16391 ft | 329 kts | 344° |
| 2026-05-07 09:25 | -0.10978 | 104.21974 | 14954 ft | 324 kts | 344° |
| 2026-05-07 09:25 | -0.06484 | 104.20580 | 14260 ft | 320 kts | 344° |
| 2026-05-07 09:25 | -0.04358 | 104.19920 | 13939 ft | 319 kts | 344° |
| 2026-05-07 09:25 | -0.02241 | 104.19264 | 13617 ft | 318 kts | 344° |
| 2026-05-07 09:26 | -0.00168 | 104.18621 | 13264 ft | 316 kts | 344° |
| 2026-05-07 09:26 | 0.01930 | 104.17970 | 12930 ft | 314 kts | 344° |
| 2026-05-07 09:26 | 0.04007 | 104.17325 | 12605 ft | 312 kts | 344° |
| 2026-05-07 09:26 | 0.06071 | 104.16685 | 12372 ft | 307 kts | 344° |
| 2026-05-07 09:27 | 0.08088 | 104.16059 | 12284 ft | 303 kts | 344° |
| 2026-05-07 09:27 | 0.10114 | 104.15431 | 12295 ft | 307 kts | 344° |
| 2026-05-07 09:27 | 0.13566 | 104.14361 | 12186 ft | 315 kts | 344° |
| 2026-05-07 09:28 | 0.16333 | 104.13503 | 12048 ft | 313 kts | 344° |
| 2026-05-07 09:28 | 0.18405 | 104.12860 | 11946 ft | 312 kts | 344° |
| 2026-05-07 09:28 | 0.20475 | 104.12218 | 11835 ft | 310 kts | 344° |
| 2026-05-07 09:28 | 0.22529 | 104.11580 | 11740 ft | 309 kts | 344° |
| 2026-05-07 09:29 | 0.23886 | 104.11159 | 11672 ft | 308 kts | 344° |
| 2026-05-07 09:29 | 0.26619 | 104.10311 | 11529 ft | 307 kts | 344° |
| 2026-05-07 09:29 | 0.27969 | 104.09893 | 11453 ft | 307 kts | 344° |
| 2026-05-07 09:29 | 0.30689 | 104.09049 | 11337 ft | 306 kts | 344° |
| 2026-05-07 09:30 | 0.32041 | 104.08630 | 11262 ft | 306 kts | 344° |
| 2026-05-07 09:30 | 0.34730 | 104.07795 | 11133 ft | 306 kts | 344° |
| 2026-05-07 09:30 | 0.36757 | 104.07167 | 11021 ft | 306 kts | 344° |
| 2026-05-07 09:30 | 0.38790 | 104.06536 | 10917 ft | 306 kts | 344° |
| 2026-05-07 09:31 | 0.40825 | 104.05905 | 10815 ft | 306 kts | 344° |
| 2026-05-07 09:31 | 0.42855 | 104.05275 | 10707 ft | 306 kts | 344° |
| 2026-05-07 09:31 | 0.44202 | 104.04857 | 10648 ft | 306 kts | 344° |
| 2026-05-07 09:31 | 0.46242 | 104.04224 | 10527 ft | 306 kts | 344° |
| 2026-05-07 09:32 | 0.48272 | 104.03594 | 10433 ft | 306 kts | 344° |
| 2026-05-07 09:32 | 0.50308 | 104.02963 | 10331 ft | 306 kts | 344° |
| 2026-05-07 09:32 | 0.52335 | 104.02334 | 10214 ft | 306 kts | 344° |
| 2026-05-07 09:32 | 0.55006 | 104.01505 | 10084 ft | 299 kts | 344° |
| 2026-05-07 09:33 | 0.56335 | 104.01092 | 10012 ft | 294 kts | 344° |
| 2026-05-07 09:33 | 0.58274 | 104.00490 | 9913 ft | 292 kts | 344° |
| 2026-05-07 09:33 | 0.60191 | 103.99896 | 9824 ft | 293 kts | 344° |
| 2026-05-07 09:33 | 0.62135 | 103.99293 | 9726 ft | 292 kts | 344° |
| 2026-05-07 09:34 | 0.64067 | 103.98693 | 9629 ft | 291 kts | 344° |
| 2026-05-07 09:34 | 0.65998 | 103.98094 | 9509 ft | 290 kts | 344° |
| 2026-05-07 09:34 | 0.67918 | 103.97498 | 9422 ft | 289 kts | 344° |
| 2026-05-07 09:34 | 0.69835 | 103.96904 | 9315 ft | 288 kts | 344° |
| 2026-05-07 09:35 | 0.71747 | 103.96334 | 9199 ft | 283 kts | 350° |
| 2026-05-07 09:35 | 0.73676 | 103.96352 | 9109 ft | 279 kts | 17° |
| 2026-05-07 09:35 | 0.75476 | 103.97022 | 9049 ft | 282 kts | 24° |
| 2026-05-07 09:35 | 0.77289 | 103.97795 | 8956 ft | 285 kts | 25° |
| 2026-05-07 09:36 | 0.79110 | 103.98579 | 8840 ft | 284 kts | 25° |
| 2026-05-07 09:36 | 0.80919 | 103.99357 | 8745 ft | 282 kts | 24° |
| 2026-05-07 09:36 | 0.82722 | 104.00129 | 8652 ft | 281 kts | 24° |
| 2026-05-07 09:36 | 0.84512 | 104.00893 | 8548 ft | 280 kts | 24° |
| 2026-05-07 09:37 | 0.86302 | 104.01655 | 8447 ft | 279 kts | 24° |
| 2026-05-07 09:37 | 0.88077 | 104.02409 | 8359 ft | 277 kts | 24° |
| 2026-05-07 09:37 | 0.89852 | 104.03161 | 8268 ft | 276 kts | 24° |
| 2026-05-07 09:37 | 0.91597 | 104.03901 | 8175 ft | 276 kts | 24° |
| 2026-05-07 09:38 | 0.93363 | 104.04648 | 8088 ft | 275 kts | 24° |
| 2026-05-07 09:38 | 0.95123 | 104.05393 | 8001 ft | 275 kts | 24° |
| 2026-05-07 09:38 | 0.96889 | 104.06140 | 7900 ft | 275 kts | 24° |
| 2026-05-07 09:38 | 0.98654 | 104.06887 | 7827 ft | 276 kts | 24° |
| 2026-05-07 09:39 | 1.00394 | 104.07623 | 7742 ft | 276 kts | 24° |
| 2026-05-07 09:39 | 1.02167 | 104.08373 | 7656 ft | 277 kts | 24° |
| 2026-05-07 09:39 | 1.03942 | 104.09124 | 7546 ft | 276 kts | 24° |
| 2026-05-07 09:39 | 1.05706 | 104.09870 | 7451 ft | 275 kts | 24° |
| 2026-05-07 09:40 | 1.07449 | 104.10607 | 7364 ft | 275 kts | 24° |
| 2026-05-07 09:40 | 1.09207 | 104.11351 | 7272 ft | 275 kts | 24° |
| 2026-05-07 09:40 | 1.10970 | 104.12096 | 7186 ft | 275 kts | 24° |
| 2026-05-07 09:40 | 1.12738 | 104.12844 | 7095 ft | 276 kts | 24° |
| 2026-05-07 09:41 | 1.14508 | 104.13594 | 6958 ft | 278 kts | 24° |
| 2026-05-07 09:41 | 1.16290 | 104.14352 | 6784 ft | 277 kts | 24° |
| 2026-05-07 09:41 | 1.18047 | 104.15102 | 6629 ft | 273 kts | 24° |
| 2026-05-07 09:41 | 1.19785 | 104.15843 | 6460 ft | 270 kts | 24° |
| 2026-05-07 09:42 | 1.21481 | 104.16566 | 6309 ft | 268 kts | 24° |
| 2026-05-07 09:42 | 1.23209 | 104.17304 | 6137 ft | 267 kts | 24° |
| 2026-05-07 09:42 | 1.24891 | 104.18021 | 5980 ft | 266 kts | 24° |
| 2026-05-07 09:42 | 1.26591 | 104.18746 | 5815 ft | 265 kts | 24° |
| 2026-05-07 09:43 | 1.28286 | 104.19468 | 5671 ft | 265 kts | 24° |
| 2026-05-07 09:43 | 1.29979 | 104.20190 | 5498 ft | 265 kts | 24° |
| 2026-05-07 09:43 | 1.31680 | 104.20912 | 5335 ft | 264 kts | 22° |
| 2026-05-07 09:43 | 1.33460 | 104.21210 | 5152 ft | 264 kts | 353° |
| 2026-05-07 09:44 | 1.35264 | 104.20847 | 5021 ft | 268 kts | 348° |
| 2026-05-07 09:44 | 1.37078 | 104.20445 | 4842 ft | 272 kts | 348° |
| 2026-05-07 09:44 | 1.38920 | 104.20043 | 4672 ft | 270 kts | 348° |
| 2026-05-07 09:44 | 1.40740 | 104.19647 | 4491 ft | 267 kts | 348° |
| 2026-05-07 09:45 | 1.42540 | 104.19259 | 4322 ft | 260 kts | 348° |
| 2026-05-07 09:45 | 1.44287 | 104.18883 | 4156 ft | 254 kts | 348° |
| 2026-05-07 09:45 | 1.45990 | 104.18517 | 4008 ft | 246 kts | 348° |
| 2026-05-07 09:45 | 1.47645 | 104.18162 | 3847 ft | 239 kts | 348° |
| 2026-05-07 09:46 | 1.49240 | 104.17811 | 3715 ft | 230 kts | 343° |
| 2026-05-07 09:46 | 1.50540 | 104.17049 | 3558 ft | 215 kts | 308° |
| 2026-05-07 09:46 | 1.51173 | 104.15767 | 3467 ft | 207 kts | 281° |
| 2026-05-07 09:46 | 1.51262 | 104.14324 | 3366 ft | 209 kts | 258° |
| 2026-05-07 09:47 | 1.50822 | 104.12962 | 3252 ft | 205 kts | 249° |
| 2026-05-07 09:47 | 1.50337 | 104.11627 | 3127 ft | 204 kts | 249° |
| 2026-05-07 09:47 | 1.49861 | 104.10298 | 2999 ft | 202 kts | 249° |
| 2026-05-07 09:47 | 1.49391 | 104.08980 | 2876 ft | 201 kts | 249° |
| 2026-05-07 09:48 | 1.48926 | 104.07675 | 2764 ft | 202 kts | 249° |
| 2026-05-07 09:48 | 1.48453 | 104.06346 | 2676 ft | 204 kts | 249° |
| 2026-05-07 09:48 | 1.47752 | 104.05106 | 2383 ft | 211 kts | 219° |
| 2026-05-07 09:48 | 1.46526 | 104.04352 | 2186 ft | 207 kts | 208° |
| 2026-05-07 09:49 | 1.45220 | 104.03694 | 1912 ft | 213 kts | 204° |
| 2026-05-07 09:49 | 1.43831 | 104.03104 | 1667 ft | 220 kts | 202° |
| 2026-05-07 09:49 | 1.42402 | 104.02505 | 1353 ft | 225 kts | 202° |
| 2026-05-07 09:49 | 1.41000 | 104.01915 | 1039 ft | 211 kts | 202° |
| 2026-05-07 09:50 | 1.39726 | 104.01378 | 821 ft | 192 kts | 202° |
| 2026-05-07 09:50 | 1.38569 | 104.00890 | 594 ft | 169 kts | 200° |
| 2026-05-07 09:50 | 1.37566 | 104.00465 | 362 ft | 148 kts | 200° |
| 2026-05-07 09:50 | 1.36655 | 104.00081 | 148 ft | 139 kts | 200° |
| 2026-05-07 09:51 | 1.35782 | 103.99713 | 32 ft | 131 kts | 199° |
| 2026-05-07 09:51 | 1.35035 | 103.99400 | 29 ft | 96 kts | 202° |
| 2026-05-07 09:51 | 1.34563 | 103.99198 | 29 ft | 52 kts | 208° |
| 2026-05-07 09:51 | 1.34390 | 103.99038 | 29 ft | 17 kts | 240° |
| 2026-05-07 09:52 | 1.34438 | 103.98967 | 29 ft | 12 kts | 359° |
| 2026-05-07 09:52 | 1.34557 | 103.99011 | 29 ft | 32 kts | 20° |
| 2026-05-07 09:52 | 1.34719 | 103.99079 | 29 ft | 25 kts | 22° |
| 2026-05-07 09:52 | 1.34876 | 103.99143 | 29 ft | 25 kts | 22° |
| 2026-05-07 09:53 | 1.35031 | 103.99209 | 29 ft | 21 kts | 22° |
| 2026-05-07 09:53 | 1.35137 | 103.99251 | 29 ft | 11 kts | 23° |
| 2026-05-07 09:53 | 1.35206 | 103.99251 | 29 ft | 9 kts | 352° |
| 2026-05-07 09:53 | 1.35261 | 103.99243 | 29 ft | 7 kts | 349° |
| 2026-05-07 09:54 | 1.35276 | 103.99239 | 29 ft | 1 kts | 341° |
| 2026-05-07 09:54 | 1.35341 | 103.99231 | 29 ft | 16 kts | 352° |
| 2026-05-07 09:54 | 1.35366 | 103.99195 | 29 ft | 6 kts | 251° |
| 2026-05-07 09:54 | 1.35335 | 103.99161 | 29 ft | 7 kts | 223° |
| 2026-05-07 09:55 | 1.35321 | 103.99148 | 29 ft | 1 kts | 223° |
| 2026-05-07 09:55 | 1.35316 | 103.99144 | 29 ft | 0 kts | 223° |